This is the latest recevied weather packets stored in our database for station/object NE1CU. If no packets are shown the sender has not sent any weather packets the latest 1 day(s).
| Time | Temp. | Humidity | Pressure | Rain* | Wind** | Luminosity | Snow |
|---|---|---|---|---|---|---|---|
| 1777988665 | 18.89° C | 64% | 1011.1 hPa | 0 mm | 0.45 m/s, 160° | 610 W/m² | - |
| 1777988361 | 18.89° C | 65% | 1011 hPa | 0 mm | 1.79 m/s, 189° | 600 W/m² | - |
| 1777988059 | 18.33° C | 66% | 1011.3 hPa | 0 mm | 0.89 m/s, 254° | 579 W/m² | - |
| 1777987754 | 18.33° C | 66% | 1011 hPa | 0 mm | 0.89 m/s, 197° | 563 W/m² | - |
| 1777987452 | 17.78° C | 70% | 1011 hPa | 0 mm | 0.89 m/s, 200° | 548 W/m² | - |
| 1777987149 | 17.22° C | 70% | 1010.9 hPa | 0 mm | 1.34 m/s, 165° | 528 W/m² | - |
| 1777986846 | 16.67° C | 71% | 1010.9 hPa | 0 mm | 0.89 m/s, 142° | 512 W/m² | - |
| 1777986544 | 16.11° C | 74% | 1011.1 hPa | 0 mm | 0.45 m/s, 162° | 499 W/m² | - |
| 1777986241 | 16.11° C | 75% | 1010.9 hPa | 0 mm | 0.89 m/s, 137° | 219 W/m² | - |
| 1777985938 | 15.56° C | 75% | 1011.1 hPa | 0 mm | 0.45 m/s, 132° | 279 W/m² | - |
| 1777985636 | 15.56° C | 76% | 1010.7 hPa | 0 mm | 0.45 m/s, 121° | 173 W/m² | - |
| 1777985332 | 15.56° C | 75% | 1010.9 hPa | 0 mm | 0 m/s | 262 W/m² | - |
| 1777985029 | 15° C | 76% | 1011.1 hPa | 0 mm | 0.89 m/s, 203° | 411 W/m² | - |
| 1777984725 | 15° C | 78% | 1011.2 hPa | 0 mm | 0 m/s | 283 W/m² | - |
| 1777984422 | 14.44° C | 79% | 1011 hPa | 0 mm | 0 m/s | 147 W/m² | - |
| 1777984118 | 14.44° C | 78% | 1011 hPa | 0 mm | 0.45 m/s, 133° | 118 W/m² | - |
| 1777983816 | 14.44° C | 79% | 1011 hPa | 0 mm | 0.45 m/s, 115° | 114 W/m² | - |
| 1777983512 | 14.44° C | 79% | 1011.1 hPa | 0 mm | 0.45 m/s, 215° | 148 W/m² | - |
| 1777983209 | 14.44° C | 79% | 1011 hPa | 0 mm | 0.45 m/s, 125° | 171 W/m² | - |
| 1777982905 | 14.44° C | 81% | 1011.1 hPa | 0 mm | 0 m/s | 188 W/m² | - |
| 1777982601 | 13.89° C | 82% | 1011.2 hPa | 0 mm | 0 m/s | 155 W/m² | - |
| 1777982300 | 13.89° C | 82% | 1011.1 hPa | 0 mm | 0 m/s | 104 W/m² | - |
| 1777981997 | 13.89° C | 82% | 1011.3 hPa | 0 mm | 0 m/s | 113 W/m² | - |
| 1777981695 | 13.89° C | 82% | 1011.3 hPa | 0 mm | 0.45 m/s, 143° | 113 W/m² | - |
| 1777981391 | 13.89° C | 83% | 1011.2 hPa | 0 mm | 0.89 m/s, 155° | 110 W/m² | - |
* Rain latest hour (hover to see other rain measurements)
** Current wind speed in m/s (hover to see current wind gust speed)